Flight Track Log - Related Links

Times and Time Zones

All times are in EDT time to prevent confusion due to time zone crossing. See the QFA1129 flight status page for this flight to view local times or setup timezone preferences in your user account.

Time Position Orientation Groundspeed Altitude Reporting Facility
EDT Latitude Longitude Course Direction KTS MPH feet Rate Location/Type
Wed 01:57:38 AM -20.3790 118.6310 241° Southwest 19 22  Level FlightAware ADS-B
Wed 01:58:18 AM -20.3800 118.6300 223° Southwest 26 30 211 Level FlightAware ADS-B
Wed 01:58:45 AM -20.3810 118.6310 137° Southeast 17 20 242 Level FlightAware ADS-B
Wed 01:59:11 AM -20.3830 118.6330 137° Southeast 23 26 268 Level FlightAware ADS-B
Wed 01:59:30 AM -20.3840 118.6340 137° Southeast 26 30 300 Level FlightAware ADS-B
Wed 01:59:51 AM -20.3860 118.6360 137° Southeast 26 30 328 Level FlightAware ADS-B
Wed 02:00:45 AM -20.3890 118.6390 137° Southeast 31 36 367 Level FlightAware ADS-B
Wed 02:00:55 AM -20.3900 118.6390 180° South 18 21 524 Level FlightAware ADS-B
Wed 02:01:27 AM -20.3900 118.6380 270° West 22 25 569 Level FlightAware ADS-B
Wed 02:01:56 AM -20.3890 118.6360 298° West 59 68 786 Level FlightAware ADS-B
Wed 02:02:20 AM -20.3800 118.6270 317° Northwest 155 178 1,200 Level FlightAware ADS-B
Wed 02:02:41 AM -20.4294 118.6171 354° North 37,400 2,129 Climbing Aus ATC (Calculated)
Wed 02:02:51 AM -20.3620 118.6100 318° Northwest 167 192 1,100 -59,500 Descending FlightAware ADS-B
Wed 02:03:17 AM -20.3520 118.5880 318° Northwest 213 245 1,700 1,889 Climbing FlightAware ADS-B
Wed 02:03:41 AM -20.5293 118.5988 348° North 37,400 2,357 Climbing Aus ATC (Calculated)
Wed 02:03:45 AM -20.3670 118.5630 237° Southwest 234 269 2,800 -101,400 Descending FlightAware ADS-B
Wed 02:04:01 AM -20.3850 118.5580 195° South 238 274 3,600 2,182 Climbing FlightAware ADS-B
Wed 02:04:29 AM -20.4150 118.5700 195° South 275 316 4,400 1,950 Climbing FlightAware ADS-B
Wed 02:04:41 AM -20.4270 118.5830 135° Southeast 284 327 4,900 2,700 Climbing FlightAware ADS-B
Wed 02:05:09 AM -20.4570 118.6060 144° Southeast 295 339 6,200 2,684 Climbing FlightAware ADS-B
Wed 02:05:19 AM -20.4700 118.6080 172° South 298 343 6,600 2,914 Climbing FlightAware ADS-B
Wed 02:05:36 AM -20.7166 118.5645 10° North 37,400 3,120 Climbing Aus ATC (Calculated)
Wed 02:05:44 AM -20.5030 118.6040 172° South 300 345 7,900 -45,730 Descending FlightAware ADS-B
Wed 02:06:13 AM -20.5420 118.5960 191° South 309 356 9,200 2,712 Climbing FlightAware ADS-B
Wed 02:06:57 AM -20.6080 118.5830 190° South 325 374 11,200 2,214 Climbing FlightAware ADS-B
Wed 02:07:02 AM -20.7985 118.5495 North 37,400 1,650 Climbing Aus ATC (Calculated)
Wed 02:07:37 AM -20.6710 118.5720 190° South 361 415 12,300 -18,156 Descending FlightAware ADS-B
Wed 02:08:19 AM -20.7420 118.5590 190° South 375 432 14,100 2,759 Climbing FlightAware ADS-B
Wed 02:08:36 AM -20.9521 118.5213 North 37,400 2,933 Climbing Aus ATC (Calculated)
Wed 02:09:04 AM -20.8190 118.5450 190° South 379 436 16,300 -18,000 Descending FlightAware ADS-B
Wed 02:09:18 AM -21.0193 118.5089 North 37,400 3,167 Climbing Aus ATC (Calculated)
Wed 02:09:40 AM -20.8790 118.5340 190° South 375 432 18,200 -15,877 Descending FlightAware ADS-B
Wed 02:10:23 AM -20.9550 118.5200 190° South 376 433 20,200 1,688 Climbing FlightAware ADS-B
Wed 02:11:16 AM -21.0410 118.5050 189° South 392 451 20,900 1,832 Climbing FlightAware ADS-B
Wed 02:11:58 AM -21.1280 118.4880 190° South 410 472 23,100 2,757 Climbing FlightAware ADS-B
Wed 02:12:30 AM -21.1890 118.4770 190° South 412 474 24,300 2,000 Climbing FlightAware ADS-B
Wed 02:13:07 AM -21.2550 118.4650 190° South 415 478 25,400 1,737 Climbing FlightAware ADS-B
Wed 02:13:08 AM -21.2560 118.4637 190° South 403 464 25,400 1,435 Level Aus ATC (RADAR)
Wed 02:13:53 AM -21.3427 118.4486 190° South 412 474 26,500  Climbing Aus ATC (RADAR)
Wed 02:13:56 AM -21.3340 118.4510 190° South 415 478 25,400 1,371 Descending FlightAware ADS-B
Wed 02:14:28 AM -21.4119 118.4356 190° South 423 487 27,300 3,231 Climbing Aus ATC (RADAR)
Wed 02:14:35 AM -21.4310 118.4330 190° South 440 506 27,500 1,309 Climbing FlightAware ADS-B
Wed 02:15:23 AM -21.5245 118.4162 190° South 439 505 28,500 1,091 Climbing Aus ATC (RADAR)
Wed 02:15:52 AM -21.5780 118.4050 190° South 460 529 28,900 1,479 Climbing FlightAware ADS-B
Wed 02:16:36 AM -21.6850 118.3860 189° South 460 529 30,300 2,214 Climbing FlightAware ADS-B
Wed 02:17:16 AM -21.7680 118.3710 190° South 442 509 32,000 2,296 Climbing FlightAware ADS-B
Wed 02:17:57 AM -21.8439 118.3561 190° South 426 490 33,400 2,182 Climbing Aus ATC (RADAR)
Wed 02:18:00 AM -21.8540 118.3550 190° South 428 493 33,600 1,543 Climbing FlightAware ADS-B
Wed 02:18:32 AM -21.9120 118.3437 190° South 419 482 34,300 1,429 Climbing Aus ATC (RADAR)
Wed 02:18:42 AM -21.9350 118.3390 190° South 426 490 34,600 1,250 Climbing FlightAware ADS-B
Wed 02:19:20 AM -22.0100 118.3250 190° South 428 493 35,300 900 Climbing FlightAware ADS-B
Wed 02:19:22 AM -22.0084 118.3251 190° South 420 483 35,200 1,297 Descending Aus ATC (RADAR)
Wed 02:19:57 AM -22.0770 118.3131 190° South 420 483 36,100 1,263 Climbing Aus ATC (RADAR)
Wed 02:20:00 AM -22.0880 118.3110 190° South 425 489 36,000 -140 Descending FlightAware ADS-B
Wed 02:20:40 AM -22.1660 118.2960 190° South 425 489 36,000  Level FlightAware ADS-B
Wed 02:21:16 AM -22.2340 118.2840 189° South 426 490 36,000  Level FlightAware ADS-B
Wed 02:21:57 AM -22.3098 118.2696 189° South 421 484 36,000  Level Aus ATC (RADAR)
Wed 02:22:04 AM -22.3290 118.2660 189° South 425 489 36,000  Level FlightAware ADS-B
Wed 02:22:47 AM -22.4068 118.2522 189° South 420 483 36,000  Level Aus ATC (RADAR)
Wed 02:22:47 AM -22.4090 118.2510 189° South 425 489 36,000  Level FlightAware ADS-B
Wed 02:23:22 AM -22.4742 118.2394 189° South 418 481 36,000  Level Aus ATC (RADAR)
Wed 02:23:28 AM -22.4930 118.2360 189° South 423 487 36,000  Level FlightAware ADS-B
Wed 02:24:07 AM -22.5612 118.2234 189° South 418 481 36,000  Level Aus ATC (RADAR)
Wed 02:24:21 AM -22.5850 118.2190 189° South 423 487 36,000  Level FlightAware ADS-B
Wed 02:24:54 AM -22.6470 118.2080 189° South 423 487 36,000  Level FlightAware ADS-B
Wed 02:25:32 AM -22.7252 118.1927 189° South 418 481 36,000  Level Aus ATC (RADAR)
Wed 02:25:42 AM -22.7260 118.1940 189° South 423 487 36,000  Level FlightAware ADS-B
Wed 02:26:19 AM -22.7870 118.1840 189° South 423 487 36,000  Level FlightAware ADS-B
Wed 02:26:55 AM -22.8460 118.1730 190° South 423 487 36,000 88 Level FlightAware ADS-B
Wed 02:27:27 AM -22.9485 118.1515 190° South 425 489 36,100  Climbing Aus ATC (RADAR)
Wed 02:27:43 AM -22.9250 118.1600 190° South 423 487 36,000 -113 Descending FlightAware ADS-B
Wed 02:28:20 AM -22.9860 118.1490 189° South 423 487 36,000  Level FlightAware ADS-B
Wed 02:28:51 AM -23.1152 118.1203 189° South 429 494 36,000  Level Aus ATC (RADAR)
Wed 02:29:08 AM -23.0650 118.1360 189° South 423 487 36,000  Level FlightAware ADS-B
Wed 02:29:44 AM -23.1240 118.1260 189° South 423 487 36,000  Level FlightAware ADS-B
Wed 02:29:56 AM -23.1440 118.1220 190° South 423 487 36,000 105 Level FlightAware ADS-B
Wed 02:30:41 AM -23.3321 118.0789 190° South 429 494 36,100  Climbing Aus ATC (RADAR)
Wed 02:31:02 AM -23.2520 118.1040 190° South 423 487 36,000 -103 Descending FlightAware ADS-B
Wed 02:31:39 AM -23.3130 118.0930 189° South 423 487 36,000 81 Level FlightAware ADS-B
Wed 02:32:16 AM -23.5200 118.0442 189° South 428 493 36,100  Climbing Aus ATC (RADAR)
Wed 02:32:28 AM -23.3930 118.0790 189° South 423 487 36,000 -125 Descending FlightAware ADS-B
Wed 02:33:04 AM -23.4520 118.0690 189° South 423 487 36,000  Level FlightAware ADS-B
Wed 02:33:53 AM -23.5330 118.0550 189° South 423 487 36,000 69 Level FlightAware ADS-B
Wed 02:34:31 AM -23.7859 117.9938 189° South 428 493 36,100 72 Climbing Aus ATC (RADAR)
Wed 02:35:16 AM -23.8754 117.9765 190° South 431 496 36,100  Level Aus ATC (RADAR)
Wed 02:36:21 AM -24.0042 117.9522 190° South 431 496 36,100  Level Aus ATC (RADAR)
Wed 02:37:10 AM -24.1039 117.9333 190° South 432 497 36,100  Level Aus ATC (RADAR)
Wed 02:38:22 AM -24.2432 117.9065 190° South 434 499 36,100  Level Aus ATC (RADAR)
Wed 02:39:20 AM -24.3631 117.8832 190° South 435 501 36,100  Level Aus ATC (RADAR)
Wed 02:40:06 AM -24.4524 117.8666 190° South 432 497 36,100  Level Aus ATC (RADAR)
Wed 02:40:40 AM -24.5219 117.8530 190° South 432 497 36,100 -71 Level Aus ATC (RADAR)
Wed 02:41:31 AM -24.6208 117.8332 190° South 430 495 36,000 -57 Descending Aus ATC (RADAR)
Wed 02:42:25 AM -24.7289 117.8132 190° South 427 491 36,000 58 Level Aus ATC (RADAR)
Wed 02:43:15 AM -24.8267 117.7943 190° South 426 490 36,100 71 Climbing Aus ATC (RADAR)
Wed 02:43:50 AM -24.8948 117.7798 191° South 426 490 36,100  Level Aus ATC (RADAR)
Wed 02:44:35 AM -24.9821 117.7643 189° South 423 487 36,100  Level Aus ATC (RADAR)
Wed 02:45:35 AM -25.0984 117.7413 190° South 422 486 36,100  Level Aus ATC (RADAR)
Wed 02:46:25 AM -25.1956 117.7239 189° South 423 487 36,100  Level Aus ATC (RADAR)
Wed 02:46:59 AM -25.2630 117.7097 191° South 424 488 36,100  Level Aus ATC (RADAR)
Wed 02:47:59 AM -25.3794 117.6864 190° South 423 487 36,100  Level Aus ATC (RADAR)
Wed 02:48:54 AM -25.4861 117.6670 189° South 422 486 36,100  Level Aus ATC (RADAR)
Wed 02:49:39 AM -25.5731 117.6501 190° South 422 486 36,100  Level Aus ATC (RADAR)
Wed 02:50:14 AM -25.6407 117.6375 190° South 421 484 36,100  Level Aus ATC (RADAR)
Wed 02:50:59 AM -25.7269 117.6206 190° South 418 481 36,100 -55 Level Aus ATC (RADAR)
Wed 02:52:04 AM -25.8506 117.5954 190° South 415 478 36,000 -55 Descending Aus ATC (RADAR)
Wed 02:52:49 AM -25.9359 117.5777 191° South 414 476 36,000  Level Aus ATC (RADAR)
Wed 02:53:44 AM -26.0397 117.5576 190° South 413 475 36,000  Level Aus ATC (RADAR)
Wed 02:54:33 AM -26.1343 117.5400 190° South 412 474 36,000  Level Aus ATC (RADAR)
Wed 02:55:08 AM -26.2003 117.5281 189° South 411 473 36,000  Level Aus ATC (RADAR)
Wed 02:55:58 AM -26.2942 117.5083 191° South 412 474 36,000  Level Aus ATC (RADAR)
Wed 02:56:48 AM -26.3893 117.4892 190° South 416 479 36,000  Level Aus ATC (RADAR)
Wed 02:57:53 AM -26.5133 117.4667 189° South 416 479 36,000  Level Aus ATC (RADAR)
Wed 02:59:03 AM -26.6470 117.4410 190° South 417 480 36,000  Level Aus ATC (RADAR)
Wed 02:59:58 AM -26.7524 117.4211 190° South 418 481 36,000  Level Aus ATC (RADAR)
Wed 03:00:43 AM -26.8385 117.4039 190° South 419 482 36,000  Level Aus ATC (RADAR)
Wed 03:01:28 AM -26.9245 117.3854 191° South 419 482 36,000  Level Aus ATC (RADAR)
Wed 03:05:15 AM -27.3624 117.2966 191° South 40,000  Climbing Aus ATC (Calculated)
Wed 03:05:40 AM -27.4217 117.2844 191° South 40,000 -934 Level Aus ATC (Calculated)
Wed 03:07:00 AM -27.5772 117.2524 190° South  Level FlightAware Approximate
Wed 03:07:01 AM -27.5774 117.2523 191° South 40,000  Level Aus ATC (Calculated)
Wed 03:07:31 AM -27.6423 117.2389 191° South 40,000 -1,589 Level Aus ATC (Calculated)
Wed 03:09:00 AM -27.8153 117.2032 190° South  Level FlightAware Approximate
Wed 03:09:32 AM -27.8486 117.1916 190° South 425 489 36,000  Level Aus ATC (RADAR)
Wed 03:10:22 AM -27.9409 117.1667 193° South 412 474 36,000  Level Aus ATC (RADAR)
Wed 03:10:57 AM -28.0073 117.1547 189° South 412 474 36,000  Level Aus ATC (RADAR)
Wed 03:11:42 AM -28.0926 117.1386 189° South 413 475 36,000  Level Aus ATC (RADAR)
Wed 03:12:42 AM -28.2046 117.1126 192° South 410 472 36,000  Level Aus ATC (RADAR)
Wed 03:13:32 AM -28.2979 117.0891 192° South 412 474 36,000  Level Aus ATC (RADAR)
Wed 03:14:31 AM -28.4130 117.0714 188° South 417 480 36,000  Level Aus ATC (RADAR)
Wed 03:15:16 AM -28.4980 117.0516 192° South 417 480 36,000  Level Aus ATC (RADAR)
Wed 03:15:51 AM -28.5658 117.0412 188° South 422 486 36,000  Level Aus ATC (RADAR)
Wed 03:16:41 AM -28.6612 117.0208 191° South 415 478 36,000  Level Aus ATC (RADAR)
Wed 03:17:19 AM -28.7330 117.0150 190° South 423 487 36,000  Level FlightAware ADS-B
Wed 03:17:36 AM -28.7676 116.9996 190° South 422 486 36,000  Level Aus ATC (RADAR)
Wed 03:18:05 AM -28.8150 116.9980 190° South 424 488 36,000  Level FlightAware ADS-B
Wed 03:18:43 AM -28.8900 116.9830 190° South 425 489 36,000  Level FlightAware ADS-B
Wed 03:19:25 AM -28.9800 116.9640 190° South 426 490 36,000  Level FlightAware ADS-B
Wed 03:20:14 AM -29.0750 116.9440 190° South 428 493 36,000  Level FlightAware ADS-B
Wed 03:21:06 AM -29.1747 116.9153 190° South 426 490 36,000  Level Aus ATC (RADAR)
Wed 03:21:07 AM -29.1710 116.9240 190° South 428 493 36,000  Level FlightAware ADS-B
Wed 03:21:40 AM -29.2350 116.9110 190° South 428 493 36,000  Level FlightAware ADS-B
Wed 03:22:17 AM -29.3114 116.8883 190° South 429 494 36,000  Level Aus ATC (RADAR)
Wed 03:22:28 AM -29.3360 116.8900 190° South 428 493 36,000  Level FlightAware ADS-B
Wed 03:23:08 AM -29.4130 116.8730 191° South 427 491 36,000  Level FlightAware ADS-B
Wed 03:23:47 AM -29.4830 116.8590 191° South 429 494 36,000  Level FlightAware ADS-B
Wed 03:23:50 AM -29.4961 116.8493 191° South 425 489 36,000  Level Aus ATC (RADAR)
Wed 03:24:32 AM -29.5710 116.8400 191° South 428 493 36,000  Level FlightAware ADS-B
Wed 03:25:10 AM -29.6530 116.8230 190° South 429 494 36,000  Level FlightAware ADS-B
Wed 03:26:00 AM -29.7500 116.7973 190° South 428 493 36,000  Level Aus ATC (RADAR)
Wed 03:26:07 AM -29.7700 116.7980 190° South 429 494 36,000  Level FlightAware ADS-B
Wed 03:26:47 AM -29.8460 116.7820 190° South 422 486 36,000  Level FlightAware ADS-B
Wed 03:27:32 AM -29.9330 116.7640 190° South 423 487 36,000 -212 Level FlightAware ADS-B
Wed 03:28:12 AM -30.0100 116.7480 190° South 396 456 35,700 -1,271 Descending FlightAware ADS-B
Wed 03:28:57 AM -30.0910 116.7300 191° South 393 452 34,200 -1,933 Descending FlightAware ADS-B
Wed 03:29:42 AM -30.1690 116.7140 190° South 378 435 32,800 -1,875 Descending FlightAware ADS-B
Wed 03:30:17 AM -30.2310 116.7000 190° South 377 434 31,700 -1,784 Descending FlightAware ADS-B
Wed 03:30:19 AM -30.2313 116.6969 190° South 380 437 31,700 -1,543 Level Aus ATC (RADAR)
Wed 03:30:52 AM -30.2900 116.6850 190° South 355 409 30,800 -1,371 Descending FlightAware ADS-B
Wed 03:30:54 AM -30.2901 116.6823 190° South 371 427 30,900 -1,733 Climbing Aus ATC (RADAR)
Wed 03:31:37 AM -30.3630 116.6610 196° South 353 406 29,500 -1,880 Descending FlightAware ADS-B
Wed 03:32:17 AM -30.4270 116.6400 196° South 353 406 28,300 -1,725 Descending FlightAware ADS-B
Wed 03:32:57 AM -30.4910 116.6200 195° South 354 407 27,200 -1,714 Descending FlightAware ADS-B
Wed 03:33:34 AM -30.5476 116.5987 195° South 359 413 26,100 -1,800 Descending Aus ATC (RADAR)
Wed 03:33:37 AM -30.5550 116.6000 195° South 351 404 26,000 -1,814 Descending FlightAware ADS-B
Wed 03:34:17 AM -30.6190 116.5790 196° South 348 400 24,800 -1,760 Descending FlightAware ADS-B
Wed 03:34:52 AM -30.6740 116.5610 196° South 349 402 23,800 -1,622 Descending FlightAware ADS-B
Wed 03:34:54 AM -30.6749 116.5588 196° South 354 407 23,800 -1,733 Level Aus ATC (RADAR)
Wed 03:35:37 AM -30.7430 116.5390 195° South 335 386 22,500 -1,735 Descending FlightAware ADS-B
Wed 03:36:17 AM -30.8040 116.5190 196° South 337 388 21,400 -1,650 Descending FlightAware ADS-B
Wed 03:36:57 AM -30.8630 116.5000 195° South 333 383 20,300 -1,624 Descending FlightAware ADS-B
Wed 03:37:42 AM -30.9300 116.4780 196° South 331 381 19,100 -1,600 Descending FlightAware ADS-B
Wed 03:38:27 AM -30.9960 116.4570 195° South 320 368 17,900 -1,579 Descending FlightAware ADS-B
Wed 03:38:58 AM -31.0408 116.4407 195° South 327 376 17,100 -1,650 Descending Aus ATC (RADAR)
Wed 03:39:07 AM -31.0550 116.4360 195° South 325 374 16,800 -1,600 Descending FlightAware ADS-B
Wed 03:39:43 AM -31.1048 116.4152 195° South 323 372 15,900 -1,600 Descending Aus ATC (RADAR)
Wed 03:39:52 AM -31.1190 116.4110 195° South 322 371 15,600 -1,636 Descending FlightAware ADS-B
Wed 03:40:27 AM -31.1680 116.3920 198° South 319 367 14,700 -1,579 Descending FlightAware ADS-B
Wed 03:41:08 AM -31.2244 116.3688 198° South 317 365 13,600 -1,600 Descending Aus ATC (RADAR)
Wed 03:41:12 AM -31.2310 116.3670 198° South 310 357 13,500 -1,636 Descending FlightAware ADS-B
Wed 03:41:52 AM -31.2870 116.3450 199° South 307 353 12,400 -1,553 Descending FlightAware ADS-B
Wed 03:42:37 AM -31.3480 116.3210 199° South 310 357 11,300 -1,579 Descending FlightAware ADS-B
Wed 03:43:27 AM -31.4160 116.2930 199° South 295 339 9,900 -1,600 Descending FlightAware ADS-B
Wed 03:43:52 AM -31.4470 116.2740 208° Southwest 297 342 9,300 -1,527 Descending FlightAware ADS-B
Wed 03:44:22 AM -31.4820 116.2520 208° Southwest 294 338 8,500 -1,418 Descending FlightAware ADS-B
Wed 03:44:47 AM -31.5120 116.2330 208° Southwest 282 325 8,000 -1,418 Descending FlightAware ADS-B
Wed 03:45:17 AM -31.5470 116.2110 208° Southwest 274 315 7,200 -1,467 Descending FlightAware ADS-B
Wed 03:45:32 AM -31.5640 116.2000 209° Southwest 278 320 6,900 -1,500 Descending FlightAware ADS-B
Wed 03:45:57 AM -31.5920 116.1820 209° Southwest 275 316 6,200 -1,200 Descending FlightAware ADS-B
Wed 03:46:27 AM -31.6250 116.1600 210° Southwest 257 296 5,800 -873 Descending FlightAware ADS-B
Wed 03:46:52 AM -31.6510 116.1440 208° Southwest 243 280 5,400 -982 Descending FlightAware ADS-B
Wed 03:47:22 AM -31.6809 116.1246 208° Southwest 248 285 4,900 -1,200 Descending Aus ATC (RADAR)
Wed 03:47:22 AM -31.6810 116.1250 208° Southwest 241 277 4,800 -800 Descending FlightAware ADS-B
Wed 03:47:52 AM -31.7110 116.1050 210° Southwest 225 259 4,500 -554 Descending FlightAware ADS-B
Wed 03:48:27 AM -31.7420 116.0860 208° Southwest 206 237 4,200 -600 Descending FlightAware ADS-B
Wed 03:48:42 AM -31.7530 116.0770 215° Southwest 193 222 4,000 -1,000 Descending FlightAware ADS-B
Wed 03:48:57 AM -31.7620 116.0640 231° Southwest 195 224 3,700 -1,200 Descending FlightAware ADS-B
Wed 03:49:22 AM -31.7760 116.0430 232° Southwest 191 220 3,200 -1,091 Descending FlightAware ADS-B
Wed 03:49:52 AM -31.7920 116.0180 233° Southwest 190 219 2,700 -1,050 Descending FlightAware ADS-B
Wed 03:50:02 AM -31.7980 116.0100 229° Southwest 181 208 2,500 -800 Descending FlightAware ADS-B
Wed 03:50:22 AM -31.8120 116.0020 206° Southwest 169 194 2,300 -800 Descending FlightAware ADS-B
Wed 03:50:47 AM -31.8320 115.9970 192° South 169 194 1,900 -873 Descending FlightAware ADS-B
Wed 03:51:17 AM -31.8540 115.9900 195° South 150 173 1,500 -764 Descending FlightAware ADS-B
Wed 03:51:42 AM -31.8700 115.9850 195° South 149 171 1,200 -764 Descending FlightAware ADS-B
Wed 03:52:12 AM -31.8910 115.9790 194° South 150 173 800 -900 Descending FlightAware ADS-B
Wed 03:52:22 AM -31.8980 115.9770 194° South 151 174 600 -750 Descending FlightAware ADS-B
Wed 03:52:52 AM -31.9190 115.9710 194° South 152 175 300 -600 Descending FlightAware ADS-B
Wed 03:53:22 AM -31.9380 115.9660 194° South 125 144 -600 Descending FlightAware ADS-B
Wed 03:53:52 AM -31.9460 115.9630 198° South 15 17  Level FlightAware ADS-B
Wed 03:54:17 AM -31.9450 115.9610 301° West 17 20  Level FlightAware ADS-B
Wed 03:54:47 AM -31.9430 115.9620 23° Northeast 21 24  Level FlightAware ADS-B

Login

Don't have an account? Register now (free) for customized features, flight alerts, and more!